Time;durP1;ratioP1;P1;durP2;ratioP2;P2;SDS_P1;SDS_P2;PMS_P1;PMS_P2;Temp;Humidity;BMP_temperature;BMP_pressure;BME280_temperature;BME280_humidity;BME280_pressure;Samples;Min_cycle;Max_cycle;Signal;HPM_P1;HPM_P2
2023/10/27 00:01:19;;;;;;;8.40;3.55;;;;;;;1.08;70.00;98822.88;5033282;28;20543;-41
2023/10/27 00:03:45;;;;;;;9.07;3.70;;;;;;;0.88;69.59;98786.41;5033134;28;20099;-40
2023/10/27 00:06:11;;;;;;;7.25;3.83;;;;;;;1.14;69.84;98820.25;5033693;28;20080;-39
2023/10/27 00:08:37;;;;;;;7.35;3.30;;;;;;;1.16;69.50;98812.53;5034526;28;20068;-40
2023/10/27 00:11:06;;;;;;;5.22;2.95;;;;;;;0.95;69.49;98779.50;5034649;28;20047;-40
2023/10/27 00:13:32;;;;;;;5.40;2.75;;;;;;;1.14;69.32;98793.81;5033744;28;20041;-41
2023/10/27 00:15:58;;;;;;;5.63;2.88;;;;;;;1.16;69.59;98797.19;5031836;28;20045;-39
2023/10/27 00:18:24;;;;;;;6.50;2.80;;;;;;;1.04;69.40;98762.34;5030984;28;20456;-39
2023/10/27 00:20:50;;;;;;;4.72;2.70;;;;;;;1.17;69.29;98786.09;5048922;28;20052;-40
2023/10/27 00:23:15;;;;;;;6.68;2.67;;;;;;;0.94;69.70;98754.78;5045963;28;20033;-38
2023/10/27 00:25:41;;;;;;;6.18;2.80;;;;;;;1.08;69.51;98775.97;5031924;28;20136;-40
2023/10/27 00:28:07;;;;;;;7.43;3.10;;;;;;;0.90;69.79;98740.31;5034662;28;20037;-39
2023/10/27 00:30:33;;;;;;;6.85;3.25;;;;;;;1.13;69.52;98769.91;5040240;28;20053;-39
2023/10/27 00:32:59;;;;;;;5.70;3.10;;;;;;;1.17;69.69;98770.72;5031394;28;20136;-39
2023/10/27 00:35:25;;;;;;;7.20;3.40;;;;;;;1.17;69.96;98761.34;5043728;28;20041;-40
2023/10/27 00:37:51;;;;;;;9.05;3.30;;;;;;;1.12;69.64;98767.38;5031057;28;20040;-40
2023/10/27 00:40:16;;;;;;;6.35;3.22;;;;;;;1.13;69.56;98775.03;5031360;28;20055;-39
2023/10/27 00:42:42;;;;;;;10.52;3.47;;;;;;;1.00;69.86;98740.19;5046227;28;20041;-38
2023/10/27 00:45:08;;;;;;;4.03;2.38;;;;;;;1.20;69.71;98763.03;5036922;28;20068;-39
2023/10/27 00:47:34;;;;;;;6.72;2.53;;;;;;;1.18;70.09;98763.03;5030887;28;21938;-39
2023/10/27 00:50:01;;;;;;;5.25;3.00;;;;;;;1.16;69.67;98751.09;5047970;28;20527;-39
2023/10/27 00:52:28;;;;;;;6.43;2.92;;;;;;;1.24;69.88;98749.31;5030849;28;20082;-38
2023/10/27 00:54:54;;;;;;;7.10;3.20;;;;;;;1.13;69.96;98733.25;5018411;28;20206;-39
2023/10/27 00:57:22;;;;;;;6.88;3.35;;;;;;;1.21;69.91;98745.06;5031567;28;20042;-39
2023/10/27 00:59:50;;;;;;;5.40;2.92;;;;;;;1.27;69.97;98754.38;5030687;28;20056;-38
2023/10/27 01:02:18;;;;;;;6.95;2.58;;;;;;;1.21;69.82;98755.31;5038019;28;20028;-40
2023/10/27 01:04:45;;;;;;;4.22;2.67;;;;;;;1.17;70.08;98747.69;5034488;28;20049;-40
2023/10/27 01:07:11;;;;;;;6.07;3.03;;;;;;;1.13;70.08;98743.47;5035121;28;20167;-39
2023/10/27 01:09:37;;;;;;;5.85;3.03;;;;;;;1.12;70.09;98745.19;5048143;28;20144;-40
2023/10/27 01:12:03;;;;;;;4.32;2.47;;;;;;;0.94;70.12;98703.63;5023979;28;20040;-40
2023/10/27 01:14:29;;;;;;;6.57;3.15;;;;;;;1.14;69.95;98727.25;5051729;28;20088;-40
2023/10/27 01:16:56;;;;;;;3.88;2.17;;;;;;;1.18;69.87;98731.47;5047824;28;20045;-38
2023/10/27 01:19:22;;;;;;;6.03;2.80;;;;;;;1.11;70.07;98738.38;5046633;28;20072;-40
2023/10/27 01:21:50;;;;;;;6.25;2.95;;;;;;;1.14;70.00;98730.66;5033580;28;20033;-40
2023/10/27 01:24:15;;;;;;;5.30;2.92;;;;;;;1.18;69.72;98722.09;5031089;28;20055;-40
2023/10/27 01:26:41;;;;;;;4.80;2.83;;;;;;;1.23;69.82;98715.19;5031595;28;20099;-40
2023/10/27 01:29:07;;;;;;;5.35;2.35;;;;;;;1.26;69.64;98704.91;5032656;28;20037;-40
2023/10/27 01:31:33;;;;;;;4.68;2.95;;;;;;;1.23;69.50;98719.47;5030517;28;20520;-40
2023/10/27 01:33:59;;;;;;;9.25;3.80;;;;;;;1.15;69.29;98701.63;5023694;28;20413;-39
2023/10/27 01:36:24;;;;;;;3.10;2.13;;;;;;;1.23;69.53;98704.09;5040409;28;20049;-39
2023/10/27 01:38:50;;;;;;;4.90;2.50;;;;;;;1.14;69.49;98704.22;5045452;28;20065;-39
2023/10/27 01:41:17;;;;;;;4.65;2.50;;;;;;;1.08;69.02;98709.41;5047555;28;20037;-39
2023/10/27 01:43:42;;;;;;;4.55;2.55;;;;;;;1.03;69.18;98701.78;5032557;28;20041;-39
2023/10/27 01:46:08;;;;;;;6.30;2.97;;;;;;;0.98;69.37;98682.25;5051943;28;20631;-39
2023/10/27 01:48:36;;;;;;;4.10;2.58;;;;;;;1.02;69.44;98689.84;5030820;28;20052;-39
2023/10/27 01:51:03;;;;;;;7.15;2.88;;;;;;;1.03;68.93;98676.22;5032398;28;20072;-39
2023/10/27 01:53:29;;;;;;;6.38;2.83;;;;;;;0.88;69.41;98643.13;5045589;28;20049;-39
2023/10/27 01:55:54;;;;;;;3.58;2.28;;;;;;;0.98;69.09;98680.53;5032371;28;20047;-41
2023/10/27 01:58:20;;;;;;;5.75;2.17;;;;;;;0.99;69.41;98664.31;5047066;28;20045;-39
2023/10/27 02:00:46;;;;;;;5.93;2.97;;;;;;;0.99;69.11;98668.59;5031305;28;20040;-39
2023/10/27 02:03:12;;;;;;;5.18;2.83;;;;;;;0.71;69.46;98611.78;5047495;28;20115;-39
2023/10/27 02:05:43;;;;;;;4.32;2.33;;;;;;;1.01;69.21;98666.84;5029094;28;20505;-39
2023/10/27 02:08:09;;;;;;;3.75;2.28;;;;;;;0.78;69.29;98631.31;5029997;28;20045;-39
2023/10/27 02:10:35;;;;;;;5.68;2.80;;;;;;;1.07;69.46;98666.78;5047651;28;20037;-38
2023/10/27 02:13:01;;;;;;;4.57;2.53;;;;;;;1.04;68.84;98662.56;5056529;28;20532;-39
2023/10/27 02:15:27;;;;;;;5.00;2.50;;;;;;;1.03;69.31;98650.63;5029631;28;20062;-39
2023/10/27 02:17:54;;;;;;;3.60;2.05;;;;;;;1.13;69.20;98651.34;5032852;28;20055;-40
2023/10/27 02:20:40;;;;;;;4.57;2.28;;;;;;;1.04;69.07;98648.91;5027471;28;20053;-39
2023/10/27 02:23:06;;;;;;;6.72;2.65;;;;;;;0.97;69.00;98648.13;5031412;28;20056;-41
2023/10/27 02:25:32;;;;;;;7.53;2.63;;;;;;;0.92;68.95;98646.50;5032165;28;20040;-39
2023/10/27 02:27:58;;;;;;;5.00;2.22;;;;;;;0.98;69.03;98641.31;5047730;28;20037;-40
2023/10/27 02:30:24;;;;;;;6.10;2.38;;;;;;;0.87;69.30;98620.97;5046863;28;20052;-42
2023/10/27 02:32:49;;;;;;;4.35;2.28;;;;;;;1.00;69.41;98632.72;5029860;28;20049;-38
2023/10/27 02:35:15;;;;;;;4.68;2.55;;;;;;;1.08;69.46;98627.53;5030618;28;20044;-39
2023/10/27 02:37:41;;;;;;;5.93;2.88;;;;;;;1.11;69.16;98620.63;5037406;28;20161;-39
2023/10/27 02:40:07;;;;;;;5.30;2.95;;;;;;;1.01;69.51;98583.25;5029854;28;20049;-40
2023/10/27 02:42:37;;;;;;;5.05;2.42;;;;;;;1.20;69.21;98617.94;5031243;28;20065;-39
2023/10/27 02:45:03;;;;;;;3.42;2.30;;;;;;;1.16;69.17;98621.41;5037575;28;20036;-39
2023/10/27 02:47:30;;;;;;;5.28;2.40;;;;;;;1.10;69.47;98620.69;5030806;28;20041;-39
2023/10/27 02:49:56;;;;;;;5.68;2.20;;;;;;;1.14;69.14;98619.75;5045552;28;20050;-39
2023/10/27 02:52:21;;;;;;;4.75;2.22;;;;;;;1.09;69.78;98616.41;5032095;28;20043;-39
2023/10/27 02:54:47;;;;;;;7.13;2.50;;;;;;;1.17;69.79;98618.00;5030672;28;20060;-39
2023/10/27 02:57:13;;;;;;;8.85;2.10;;;;;;;1.14;69.44;98612.94;5029082;28;20037;-39
2023/10/27 02:59:39;;;;;;;5.93;2.20;;;;;;;0.72;69.29;98562.34;5031305;28;20868;-39
2023/10/27 03:02:05;;;;;;;5.03;2.20;;;;;;;1.06;69.16;98611.31;5027571;28;20123;-39
2023/10/27 03:04:32;;;;;;;4.93;2.10;;;;;;;1.04;69.67;98606.25;5040833;28;20041;-39
2023/10/27 03:06:58;;;;;;;3.72;2.10;;;;;;;0.98;69.37;98603.78;5035284;28;20116;-39
2023/10/27 03:09:24;;;;;;;8.05;2.92;;;;;;;0.96;69.85;98599.53;5050062;28;20045;-40
2023/10/27 03:11:50;;;;;;;4.55;2.78;;;;;;;1.01;69.47;98584.97;5047736;28;20049;-39
2023/10/27 03:14:16;;;;;;;3.92;2.38;;;;;;;0.95;70.06;98565.41;5049860;28;20045;-38
2023/10/27 03:16:43;;;;;;;4.22;1.95;;;;;;;1.11;69.80;98589.06;5050653;28;20485;-39
2023/10/27 03:19:09;;;;;;;4.93;2.45;;;;;;;0.94;70.16;98557.78;5046808;28;20480;-40
2023/10/27 03:21:35;;;;;;;5.22;2.17;;;;;;;1.13;70.11;98580.53;5034407;28;20725;-40
2023/10/27 03:24:01;;;;;;;3.65;2.47;;;;;;;1.10;70.17;98579.72;5042182;28;20040;-40
2023/10/27 03:26:27;;;;;;;5.47;2.40;;;;;;;1.09;70.20;98591.69;5034985;28;20718;-39
2023/10/27 03:28:53;;;;;;;4.60;2.25;;;;;;;1.02;70.03;98597.75;5050694;28;20041;-39
2023/10/27 03:31:19;;;;;;;2.90;2.08;;;;;;;1.01;69.94;98607.97;5050500;28;20496;-39
2023/10/27 03:33:45;;;;;;;6.75;2.55;;;;;;;0.98;69.62;98601.22;5034257;28;20119;-40
2023/10/27 03:36:11;;;;;;;4.85;2.33;;;;;;;0.88;69.76;98611.59;5032753;28;20524;-42
2023/10/27 03:38:37;;;;;;;6.95;3.00;;;;;;;0.82;70.01;98592.03;5033545;28;20144;-38
2023/10/27 03:41:04;;;;;;;4.78;2.65;;;;;;;0.82;69.94;98595.44;5030307;28;20041;-41
2023/10/27 03:43:30;;;;;;;6.35;2.30;;;;;;;0.89;69.97;98603.06;5049411;28;20548;-40
2023/10/27 03:45:56;;;;;;;2.20;1.80;;;;;;;0.84;70.14;98592.84;5033828;28;20037;-39
2023/10/27 03:48:22;;;;;;;4.90;2.10;;;;;;;0.79;70.04;98594.63;5033600;28;20540;-45
2023/10/27 03:50:48;;;;;;;4.20;2.20;;;;;;;0.75;70.03;98585.31;5033077;28;20044;-39
2023/10/27 03:53:14;;;;;;;4.32;2.45;;;;;;;0.58;70.39;98554.81;5034160;28;20044;-40
2023/10/27 03:55:39;;;;;;;4.68;2.70;;;;;;;0.60;70.73;98550.53;5034041;28;20041;-46
2023/10/27 03:58:13;;;;;;;7.65;2.80;;;;;;;0.79;70.61;98566.47;5038952;28;20418;-39
2023/10/27 04:00:39;;;;;;;3.90;2.17;;;;;;;0.81;70.17;98568.16;5034940;28;20040;-42
2023/10/27 04:03:05;;;;;;;3.80;2.22;;;;;;;0.88;71.09;98568.94;5033726;28;20049;-39
2023/10/27 04:05:31;;;;;;;4.53;2.25;;;;;;;0.98;70.26;98562.84;5048792;28;20048;-38
2023/10/27 04:07:57;;;;;;;5.13;2.63;;;;;;;0.93;70.64;98553.53;5032638;28;20045;-39
2023/10/27 04:10:22;;;;;;;5.35;3.00;;;;;;;0.97;70.41;98543.22;5033518;28;20045;-39
2023/10/27 04:12:48;;;;;;;5.97;2.20;;;;;;;0.98;70.63;98531.28;5032842;28;20512;-40
2023/10/27 04:15:14;;;;;;;5.57;2.47;;;;;;;0.98;70.38;98533.84;5041911;28;20039;-39
2023/10/27 04:17:40;;;;;;;3.33;2.10;;;;;;;0.78;70.63;98496.59;5039050;28;20052;-39
2023/10/27 04:20:07;;;;;;;4.85;2.80;;;;;;;1.02;70.48;98540.59;5040476;28;20125;-40
2023/10/27 04:22:33;;;;;;;6.13;2.97;;;;;;;1.10;70.75;98537.03;5030568;28;20046;-40
2023/10/27 04:24:59;;;;;;;5.22;2.50;;;;;;;1.11;70.29;98538.75;5049480;28;20064;-40
2023/10/27 04:27:28;;;;;;;3.08;2.50;;;;;;;0.78;70.50;98471.03;5031369;28;20100;-39
2023/10/27 04:29:54;;;;;;;3.25;1.80;;;;;;;1.21;70.58;98529.19;5031639;28;20038;-39
2023/10/27 04:32:20;;;;;;;6.22;2.53;;;;;;;1.15;70.50;98519.09;5031252;28;20045;-38
2023/10/27 04:34:47;;;;;;;4.90;2.50;;;;;;;1.05;70.25;98491.91;5048263;28;20041;-40
2023/10/27 04:37:12;;;;;;;3.80;2.10;;;;;;;1.06;70.37;98484.22;5033198;28;20539;-41
2023/10/27 04:39:38;;;;;;;5.63;2.13;;;;;;;1.21;70.26;98516.41;5048829;28;20041;-40
2023/10/27 04:42:04;;;;;;;5.22;2.50;;;;;;;1.02;70.39;98482.59;5034012;28;20073;-40
2023/10/27 04:44:30;;;;;;;4.07;2.10;;;;;;;1.31;70.50;98517.13;5033373;28;20504;-39
2023/10/27 04:46:56;;;;;;;4.05;2.40;;;;;;;1.38;70.28;98508.47;5051136;28;20045;-40
2023/10/27 04:49:22;;;;;;;2.83;1.67;;;;;;;1.41;70.17;98518.66;5031582;28;20856;-40
2023/10/27 04:51:47;;;;;;;5.50;2.60;;;;;;;1.26;69.78;98506.94;5031904;28;20048;-40
2023/10/27 04:54:13;;;;;;;3.85;2.08;;;;;;;1.05;70.01;98490.19;5046767;28;20041;-39
2023/10/27 04:56:39;;;;;;;4.45;2.50;;;;;;;1.12;70.10;98499.50;5032582;28;20425;-40
2023/10/27 04:59:05;;;;;;;5.95;2.78;;;;;;;1.15;70.07;98506.28;5032081;28;20049;-40
2023/10/27 05:01:31;;;;;;;5.53;2.38;;;;;;;1.03;70.27;98480.88;5033149;28;20130;-40
2023/10/27 05:03:57;;;;;;;4.82;2.63;;;;;;;1.17;70.30;98501.97;5031864;28;20730;-39
2023/10/27 05:06:23;;;;;;;5.22;2.30;;;;;;;1.11;69.64;98497.78;5031686;28;20143;-40
2023/10/27 05:08:50;;;;;;;6.28;2.80;;;;;;;1.00;69.95;98471.53;5047941;28;20179;-40
2023/10/27 05:11:17;;;;;;;5.32;2.80;;;;;;;1.04;69.90;98456.97;5045969;28;20057;-40
2023/10/27 05:13:43;;;;;;;5.47;2.33;;;;;;;1.04;70.02;98456.97;5047747;28;20037;-41
2023/10/27 05:16:09;;;;;;;7.30;2.97;;;;;;;1.23;69.81;98482.25;5030289;28;20480;-41
2023/10/27 05:18:35;;;;;;;5.05;2.65;;;;;;;1.14;69.69;98472.16;5030665;28;20531;-40
2023/10/27 05:21:00;;;;;;;10.00;3.58;;;;;;;1.09;70.12;98475.66;5039491;28;20037;-40
2023/10/27 05:23:26;;;;;;;5.53;2.92;;;;;;;0.97;70.23;98450.25;5048426;28;20044;-40
2023/10/27 05:25:55;;;;;;;3.72;2.50;;;;;;;1.06;70.27;98465.47;5031742;28;20060;-41
2023/10/27 05:28:21;;;;;;;4.18;2.13;;;;;;;1.06;70.54;98470.56;5029788;28;20063;-41
2023/10/27 05:30:50;;;;;;;3.88;2.30;;;;;;;0.99;70.30;98466.44;5030667;28;20568;-40
2023/10/27 05:33:16;;;;;;;;;;;;;;;1.06;71.00;98479.09;5032277;28;21316;-40
2023/10/27 05:35:42;;;;;;;5.60;2.60;;;;;;;1.14;70.87;98466.19;5032313;28;19999;-39
2023/10/27 05:38:08;;;;;;;5.65;3.03;;;;;;;1.16;71.04;98465.28;5032219;28;20052;-40
2023/10/27 05:40:34;;;;;;;5.75;3.08;;;;;;;1.22;71.02;98464.34;5032071;28;20574;-40
2023/10/27 05:43:00;;;;;;;12.00;3.38;;;;;;;1.23;71.20;98454.09;5034763;28;20154;-39
2023/10/27 05:45:26;;;;;;;10.25;4.35;;;;;;;1.28;71.40;98452.28;5040341;28;20524;-41
2023/10/27 05:47:52;;;;;;;6.85;3.15;;;;;;;1.42;71.79;98461.44;5031066;28;20049;-40
2023/10/27 05:50:18;;;;;;;6.72;3.28;;;;;;;1.37;71.68;98460.69;5030590;28;20065;-40
2023/10/27 05:52:44;;;;;;;5.32;2.58;;;;;;;1.40;71.64;98458.09;5030155;28;20037;-40
2023/10/27 05:55:10;;;;;;;6.93;3.70;;;;;;;1.38;71.39;98462.38;5046023;28;20042;-39
2023/10/27 05:57:36;;;;;;;7.35;3.83;;;;;;;1.53;71.44;98459.53;5029907;28;20048;-41
2023/10/27 06:00:03;;;;;;;4.50;2.75;;;;;;;1.35;71.54;98419.75;5038895;28;20106;-39
2023/10/27 06:02:32;;;;;;;8.20;2.95;;;;;;;1.40;71.50;98414.56;5032841;28;20456;-39
2023/10/27 06:04:58;;;;;;;8.40;3.10;;;;;;;1.69;71.86;98453.25;5038036;28;20060;-40
2023/10/27 06:07:24;;;;;;;6.53;2.95;;;;;;;1.64;71.54;98450.78;5026592;28;20041;-40
2023/10/27 06:09:50;;;;;;;7.47;3.15;;;;;;;1.66;71.69;98451.63;5032164;28;20095;-41
2023/10/27 06:12:16;;;;;;;6.45;3.38;;;;;;;1.67;71.65;98429.41;5036047;28;20453;-40
2023/10/27 06:14:44;;;;;;;8.15;3.70;;;;;;;1.80;71.22;98432.56;5036814;28;20555;-39
2023/10/27 06:17:12;;;;;;;5.78;3.08;;;;;;;1.95;71.45;98425.44;5032028;28;20463;-40
2023/10/27 06:19:38;;;;;;;6.43;3.22;;;;;;;2.02;71.32;98411.63;5047216;28;20563;-40
2023/10/27 06:22:05;;;;;;;8.07;3.47;;;;;;;2.10;71.32;98414.00;5028375;28;20231;-39
2023/10/27 06:24:31;;;;;;;4.22;2.58;;;;;;;2.17;71.14;98414.72;5033456;28;20136;-39
2023/10/27 06:26:57;;;;;;;5.15;2.97;;;;;;;2.13;70.94;98412.25;5029843;28;20052;-39
2023/10/27 06:29:23;;;;;;;17.05;7.38;;;;;;;1.81;70.39;98347.16;5030408;28;20132;-39
2023/10/27 06:31:49;;;;;;;4.38;2.47;;;;;;;2.21;70.35;98404.38;5031815;28;20041;-44
2023/10/27 06:34:15;;;;;;;7.38;3.40;;;;;;;2.20;70.50;98396.75;5032417;28;20043;-41
2023/10/27 06:36:41;;;;;;;8.88;3.60;;;;;;;2.33;70.15;98401.56;5032280;28;20847;-41
2023/10/27 06:39:07;;;;;;;7.10;3.00;;;;;;;2.34;69.90;98400.69;5030947;28;20533;-39
2023/10/27 06:41:33;;;;;;;5.80;3.22;;;;;;;2.20;69.54;98386.47;5035284;28;20068;-40
2023/10/27 06:44:00;;;;;;;5.60;3.30;;;;;;;2.40;69.49;98404.84;5036218;28;20238;-40
2023/10/27 06:46:26;;;;;;;3.78;2.63;;;;;;;1.99;68.98;98345.03;5038028;28;20036;-43
2023/10/27 06:48:52;;;;;;;7.53;3.42;;;;;;;2.37;69.17;98402.31;5030438;28;20848;-40
2023/10/27 06:51:18;;;;;;;5.95;2.90;;;;;;;2.47;69.11;98404.66;5032177;28;20041;-40
2023/10/27 06:53:43;;;;;;;5.63;3.35;;;;;;;2.49;69.05;98402.91;5035369;28;20044;-39
2023/10/27 06:56:09;;;;;;;8.05;3.53;;;;;;;2.53;69.06;98399.38;5050762;28;20508;-39
2023/10/27 06:58:36;;;;;;;6.25;3.20;;;;;;;2.63;69.38;98392.31;5050555;28;20122;-39
2023/10/27 07:01:06;;;;;;;7.38;3.00;;;;;;;2.67;69.02;98386.22;5034662;28;20044;-40
2023/10/27 07:03:32;;;;;;;7.55;3.42;;;;;;;2.68;68.52;98387.06;5035629;28;20041;-40
2023/10/27 07:05:59;;;;;;;8.27;3.60;;;;;;;2.51;68.62;98383.19;5034204;28;20045;-41
2023/10/27 07:08:25;;;;;;;4.28;2.60;;;;;;;2.41;68.40;98386.81;5050767;28;20041;-39
2023/10/27 07:10:57;;;;;;;6.85;3.33;;;;;;;2.23;68.42;98388.97;5034912;28;20040;-41
2023/10/27 07:13:27;;;;;;;7.05;2.92;;;;;;;2.26;68.61;98376.06;5033756;28;20540;-40
2023/10/27 07:15:53;;;;;;;7.22;3.13;;;;;;;2.25;68.57;98382.91;5034231;28;20048;-41
2023/10/27 07:18:19;;;;;;;6.03;3.05;;;;;;;2.20;68.45;98384.72;5034203;28;20040;-40
2023/10/27 07:20:46;;;;;;;11.82;3.75;;;;;;;2.11;69.00;98351.63;5031297;28;20037;-40
2023/10/27 07:23:13;;;;;;;7.25;3.22;;;;;;;2.29;68.80;98383.72;5031667;28;20041;-40
2023/10/27 07:25:39;;;;;;;4.47;2.78;;;;;;;2.20;68.52;98376.22;5035879;28;20072;-39
2023/10/27 07:28:05;;;;;;;5.93;3.15;;;;;;;2.01;68.44;98365.50;5035113;28;20045;-40
2023/10/27 07:30:31;;;;;;;7.15;2.72;;;;;;;2.10;68.66;98381.53;5038211;28;20040;-39
2023/10/27 07:32:57;;;;;;;7.45;3.00;;;;;;;1.90;68.68;98345.25;5070357;28;20049;-40
2023/10/27 07:35:23;;;;;;;3.95;2.75;;;;;;;2.03;68.66;98379.16;5049045;28;20067;-39
2023/10/27 07:37:49;;;;;;;5.82;3.05;;;;;;;2.17;69.06;98373.72;5035172;28;20037;-40
2023/10/27 07:40:17;;;;;;;5.47;3.20;;;;;;;2.28;68.91;98382.03;5040304;28;20075;-40
2023/10/27 07:42:44;;;;;;;;;;;;;;;2.09;68.54;98374.72;5052473;28;20116;-38
2023/10/27 07:45:10;;;;;;;4.07;2.50;;;;;;;1.99;68.18;98372.41;5052689;28;19921;-39
2023/10/27 07:47:36;;;;;;;5.85;3.30;;;;;;;1.83;68.69;98377.00;5055901;28;20049;-39
2023/10/27 07:50:02;;;;;;;4.20;2.40;;;;;;;1.83;68.83;98379.56;5031960;28;20037;-40
2023/10/27 07:52:29;;;;;;;8.27;3.33;;;;;;;1.76;69.16;98377.16;5049604;28;20439;-41
2023/10/27 07:54:55;;;;;;;6.20;3.30;;;;;;;1.72;69.15;98389.19;5030711;28;20041;-42
2023/10/27 07:57:21;;;;;;;6.97;3.55;;;;;;;1.69;69.67;98392.63;5048651;28;20036;-41
2023/10/27 07:59:47;;;;;;;8.35;3.30;;;;;;;1.74;69.41;98377.16;5040882;28;20053;-41
2023/10/27 08:02:13;;;;;;;6.95;3.55;;;;;;;1.78;70.03;98375.41;5027292;28;20041;-41
2023/10/27 08:04:40;;;;;;;6.43;3.53;;;;;;;1.86;70.03;98368.41;5035296;28;20060;-40
2023/10/27 08:07:06;;;;;;;7.97;3.75;;;;;;;2.02;70.00;98374.91;5056615;28;20040;-39
2023/10/27 08:09:32;;;;;;;8.57;3.55;;;;;;;2.00;69.99;98367.22;5071439;28;20063;-39
2023/10/27 08:11:58;;;;;;;5.80;3.83;;;;;;;2.13;70.41;98372.94;5046619;28;20064;-40
2023/10/27 08:14:24;;;;;;;45.60;6.32;;;;;;;2.20;69.99;98371.91;5038795;28;20045;-41
2023/10/27 08:16:49;;;;;;;11.35;4.93;;;;;;;2.06;70.12;98351.72;5050080;28;20045;-40
2023/10/27 08:19:15;;;;;;;5.28;2.60;;;;;;;2.22;70.45;98375.31;5057218;28;20075;-39
2023/10/27 08:21:41;;;;;;;8.82;3.72;;;;;;;2.10;70.41;98360.19;5051623;28;20529;-40
2023/10/27 08:24:08;;;;;;;6.47;3.55;;;;;;;2.07;70.50;98330.34;5052690;28;20088;-39
2023/10/27 08:26:33;;;;;;;9.20;4.65;;;;;;;2.22;70.35;98359.91;5053293;28;20036;-41
2023/10/27 08:29:00;;;;;;;10.63;4.95;;;;;;;2.28;70.64;98353.81;5053162;28;20048;-39
2023/10/27 08:31:26;;;;;;;11.80;3.63;;;;;;;2.33;70.67;98362.25;5041888;28;20155;-39
2023/10/27 08:33:52;;;;;;;7.68;4.07;;;;;;;2.28;70.43;98349.53;5045300;28;20045;-40
2023/10/27 08:36:19;;;;;;;6.30;3.55;;;;;;;2.14;70.51;98351.56;5047747;28;20052;-41
2023/10/27 08:38:45;;;;;;;6.03;3.47;;;;;;;1.89;70.65;98330.72;5039366;28;20131;-38
2023/10/27 08:41:11;;;;;;;7.32;3.80;;;;;;;2.00;71.01;98345.88;5032739;28;20183;-39
2023/10/27 08:43:39;;;;;;;6.57;3.40;;;;;;;2.05;71.11;98355.16;5033109;28;20477;-38
2023/10/27 08:46:07;;;;;;;6.60;3.33;;;;;;;2.10;71.08;98347.38;5035239;28;20037;-39
2023/10/27 08:48:32;;;;;;;8.15;3.80;;;;;;;2.06;70.96;98333.78;5061158;28;20146;-39
2023/10/27 08:51:04;;;;;;;6.13;3.90;;;;;;;1.95;71.16;98319.50;5047313;28;20132;-41
2023/10/27 08:53:30;;;;;;;6.70;3.30;;;;;;;2.14;71.06;98343.88;5052019;28;20405;-40
2023/10/27 08:56:00;;;;;;;7.78;4.35;;;;;;;2.03;71.08;98325.31;5052414;28;20090;-40
2023/10/27 08:58:26;;;;;;;6.63;3.28;;;;;;;2.07;70.70;98327.78;5031654;28;20041;-41
2023/10/27 09:00:52;;;;;;;4.47;3.25;;;;;;;2.08;71.17;98337.16;5044326;28;20512;-40
2023/10/27 09:03:18;;;;;;;6.35;3.35;;;;;;;1.81;70.82;98299.31;5044036;28;20040;-40
2023/10/27 09:05:45;;;;;;;5.40;2.92;;;;;;;2.01;70.73;98338.16;5038528;28;20496;-39
2023/10/27 09:08:11;;;;;;;7.45;3.67;;;;;;;2.05;70.77;98324.41;5042617;28;20045;-40
2023/10/27 09:10:38;;;;;;;5.85;3.47;;;;;;;1.89;70.79;98314.50;5030997;28;20044;-40
2023/10/27 09:13:07;;;;;;;7.20;3.42;;;;;;;1.83;70.47;98289.06;5029101;28;20152;-39
2023/10/27 09:15:46;;;;;;;3.97;2.92;;;;;;;1.92;70.61;98323.00;5040998;28;20029;-38
2023/10/27 09:18:13;;;;;;;10.10;3.65;;;;;;;1.64;70.75;98302.22;5047893;28;20041;-37
2023/10/27 09:20:52;;;;;;;7.70;3.53;;;;;;;1.87;70.64;98326.53;5038447;28;20500;-39
2023/10/27 09:23:20;;;;;;;7.03;4.03;;;;;;;1.92;70.68;98322.16;5035803;28;20083;-47
2023/10/27 09:25:46;;;;;;;8.25;3.38;;;;;;;2.04;70.54;98321.91;5047225;28;20109;-39
2023/10/27 09:28:13;;;;;;;6.30;3.35;;;;;;;2.17;70.62;98314.75;5043312;28;20041;-44
2023/10/27 09:30:41;;;;;;;8.77;3.30;;;;;;;2.17;70.24;98305.34;5051673;28;20700;-39
2023/10/27 09:33:26;;;;;;;9.50;3.60;;;;;;;2.14;70.04;98310.56;5049726;28;20044;-40
2023/10/27 09:35:52;;;;;;;6.80;3.53;;;;;;;2.02;70.26;98310.81;5046458;28;20044;-40
2023/10/27 09:38:20;;;;;;;6.68;3.08;;;;;;;1.99;70.53;98310.91;5051637;28;20046;-40
2023/10/27 09:40:47;;;;;;;8.38;3.83;;;;;;;1.72;70.47;98280.75;5069204;28;20094;-39
2023/10/27 09:43:20;;;;;;;7.97;4.25;;;;;;;2.01;70.49;98304.84;5044834;28;20856;-39
2023/10/27 09:46:03;;;;;;;6.53;3.45;;;;;;;2.00;70.80;98304.88;5035439;28;20110;-40
2023/10/27 09:48:30;;;;;;;8.68;4.32;;;;;;;1.69;70.68;98258.59;5036593;28;20057;-39
2023/10/27 09:51:04;;;;;;;6.05;3.53;;;;;;;1.83;71.07;98314.66;5034588;28;20057;-38
2023/10/27 09:53:31;;;;;;;13.13;3.95;;;;;;;1.85;71.39;98306.06;5032047;28;20585;-40
2023/10/27 09:55:58;;;;;;;9.48;3.70;;;;;;;1.88;71.26;98300.03;5025091;28;20049;-40
2023/10/27 09:58:31;;;;;;;6.82;4.18;;;;;;;1.94;71.61;98298.16;5033165;28;20041;-40
2023/10/27 10:00:58;;;;;;;16.67;4.65;;;;;;;1.97;71.06;98282.75;5047226;28;20179;-40
2023/10/27 10:03:27;;;;;;;9.95;4.38;;;;;;;2.01;71.39;98288.63;5031603;28;20132;-40
2023/10/27 10:06:24;;;;;;;17.75;8.02;;;;;;;2.00;71.35;98279.25;5040790;28;20098;-40
2023/10/27 10:09:19;;;;;;;24.00;9.23;;;;;;;2.19;71.65;98283.09;5031522;28;20064;-40
2023/10/27 10:11:47;;;;;;;10.95;4.63;;;;;;;2.27;71.26;98285.47;5047652;28;20045;-38
2023/10/27 10:14:39;;;;;;;9.30;4.55;;;;;;;2.11;71.36;98270.44;5031587;28;20045;-39
2023/10/27 10:17:05;;;;;;;7.85;4.03;;;;;;;2.07;71.43;98270.56;5046516;28;20039;-38
2023/10/27 10:19:50;;;;;;;10.63;4.05;;;;;;;2.10;71.61;98255.94;5032908;28;20045;-40
2023/10/27 10:22:38;;;;;;;9.18;4.32;;;;;;;2.09;71.46;98264.50;5032791;28;20045;-40
2023/10/27 10:25:25;;;;;;;5.57;3.75;;;;;;;2.04;71.61;98257.81;5035245;28;20298;-40
2023/10/27 10:28:24;;;;;;;9.77;4.88;;;;;;;2.02;71.84;98257.00;5050674;28;20466;-40
2023/10/27 10:31:11;;;;;;;8.38;4.18;;;;;;;2.13;72.01;98252.47;5029720;28;20049;-40
2023/10/27 10:33:38;;;;;;;7.13;4.07;;;;;;;2.08;71.37;98242.34;5037235;28;20156;-40
2023/10/27 10:36:22;;;;;;;8.70;4.38;;;;;;;2.09;71.62;98251.69;5049667;28;20044;-41
2023/10/27 10:38:58;;;;;;;9.13;4.32;;;;;;;2.10;71.75;98252.53;5034767;28;20079;-40
2023/10/27 10:41:49;;;;;;;8.85;4.25;;;;;;;2.21;71.34;98250.56;5049240;28;20098;-41
2023/10/27 10:44:16;;;;;;;13.02;4.38;;;;;;;2.17;71.52;98248.94;5032478;28;20041;-40
2023/10/27 10:46:43;;;;;;;8.38;4.28;;;;;;;2.24;71.83;98245.38;5034162;28;20037;-40
2023/10/27 10:49:12;;;;;;;8.20;4.75;;;;;;;2.29;71.57;98243.53;5037234;28;20041;-40
2023/10/27 10:51:37;;;;;;;6.53;4.00;;;;;;;2.36;71.54;98244.22;5038906;28;20132;-40
2023/10/27 10:54:13;;;;;;;6.15;3.50;;;;;;;2.24;71.50;98234.28;5051600;28;20037;-41
2023/10/27 10:56:38;;;;;;;6.50;3.70;;;;;;;2.03;72.09;98241.59;5057884;28;20528;-40
2023/10/27 10:59:05;;;;;;;6.85;4.07;;;;;;;2.05;72.48;98233.84;5054154;28;20099;-41
2023/10/27 11:01:31;;;;;;;14.82;5.63;;;;;;;2.04;72.33;98211.69;5042932;28;20041;-40
2023/10/27 11:03:57;;;;;;;6.20;3.13;;;;;;;2.13;71.76;98209.75;5046293;28;20595;-38
2023/10/27 11:06:28;;;;;;;8.35;4.38;;;;;;;2.24;71.99;98236.84;5045957;28;20127;-40
2023/10/27 11:08:54;;;;;;;8.75;4.35;;;;;;;2.06;72.08;98232.97;5029289;28;20047;-38
2023/10/27 11:11:21;;;;;;;12.48;5.30;;;;;;;2.00;72.56;98223.72;5037590;28;20048;-41
2023/10/27 11:13:52;;;;;;;9.65;4.68;;;;;;;2.12;72.73;98213.19;5035880;28;20431;-41
2023/10/27 11:16:23;;;;;;;11.88;4.97;;;;;;;2.22;72.62;98205.25;5027355;28;20041;-40
2023/10/27 11:18:57;;;;;;;9.85;4.10;;;;;;;2.32;72.49;98215.25;5047253;28;20041;-41
2023/10/27 11:21:25;;;;;;;8.60;4.70;;;;;;;2.23;72.43;98214.63;5039290;28;20083;-40
2023/10/27 11:23:51;;;;;;;9.15;4.25;;;;;;;2.06;72.40;98167.19;5050154;28;20049;-39
2023/10/27 11:26:22;;;;;;;8.60;4.13;;;;;;;2.34;72.49;98200.69;5035930;28;20065;-39
2023/10/27 11:28:49;;;;;;;10.40;4.38;;;;;;;2.33;72.55;98198.13;5049727;28;20629;-42
2023/10/27 11:31:28;;;;;;;8.50;4.28;;;;;;;2.30;72.44;98198.22;5053681;28;20051;-42
2023/10/27 11:34:11;;;;;;;14.88;5.78;;;;;;;2.21;72.66;98183.91;5030873;28;20047;-42
2023/10/27 11:36:38;;;;;;;7.43;3.72;;;;;;;2.28;72.70;98185.44;5042336;28;20032;-39
2023/10/27 11:39:20;;;;;;;7.03;3.72;;;;;;;2.34;72.63;98179.31;5028233;28;20484;-40
2023/10/27 11:41:55;;;;;;;7.45;3.70;;;;;;;2.35;72.46;98181.00;5036409;28;20039;-41
2023/10/27 11:44:21;;;;;;;7.72;3.88;;;;;;;2.27;72.59;98168.38;5038984;28;20519;-38